createdAt,value
2017-07-31T00:00:13.108Z,18.20
2017-07-31T00:02:40.647Z,18.10
2017-07-31T00:05:08.204Z,18.00
2017-07-31T00:07:35.742Z,17.90
2017-07-31T00:10:04.065Z,17.80
2017-07-31T00:12:31.592Z,17.80
2017-07-31T00:14:59.118Z,17.70
2017-07-31T00:17:26.681Z,17.70
2017-07-31T00:19:54.222Z,17.60
2017-07-31T00:22:21.785Z,17.60
2017-07-31T00:24:49.311Z,17.60
2017-07-31T00:27:16.871Z,17.60
2017-07-31T00:29:44.398Z,17.60
2017-07-31T00:32:12.711Z,17.50
2017-07-31T00:34:40.235Z,17.40
2017-07-31T00:37:08.557Z,17.40
2017-07-31T00:39:36.085Z,17.40
2017-07-31T00:42:04.398Z,17.50
2017-07-31T00:44:31.922Z,17.50
2017-07-31T00:47:00.247Z,17.50
2017-07-31T00:49:27.794Z,17.50
2017-07-31T00:51:55.337Z,17.40
2017-07-31T00:54:22.875Z,17.50
2017-07-31T00:56:51.190Z,17.40
2017-07-31T00:59:18.716Z,17.40
2017-07-31T01:01:47.028Z,17.30
2017-07-31T01:04:14.552Z,17.30
2017-07-31T01:06:42.111Z,17.20
2017-07-31T01:09:10.398Z,17.30
2017-07-31T01:11:37.946Z,17.30
2017-07-31T01:14:06.235Z,17.30
2017-07-31T01:16:33.795Z,17.30
2017-07-31T01:19:01.333Z,17.30
2017-07-31T01:24:03.636Z,17.10
2017-07-31T01:26:31.927Z,16.90
2017-07-31T01:28:59.483Z,16.90
2017-07-31T01:31:27.010Z,16.90
2017-07-31T01:33:55.326Z,16.90
2017-07-31T01:36:22.858Z,16.90
2017-07-31T01:38:51.174Z,16.90
2017-07-31T01:41:18.711Z,16.90
2017-07-31T01:43:46.265Z,16.80
2017-07-31T01:46:14.566Z,16.80
2017-07-31T01:48:42.114Z,16.80
2017-07-31T01:51:09.643Z,16.80
2017-07-31T01:53:37.970Z,16.80
2017-07-31T01:56:05.490Z,16.80
2017-07-31T01:58:33.804Z,16.70
2017-07-31T02:01:01.334Z,16.70
2017-07-31T02:03:29.656Z,16.80
2017-07-31T02:05:57.177Z,16.70
2017-07-31T02:08:24.734Z,16.70
2017-07-31T02:10:53.020Z,17.00
2017-07-31T02:13:20.565Z,16.90
2017-07-31T02:15:48.858Z,17.00
2017-07-31T02:18:16.402Z,17.00
2017-07-31T02:20:44.690Z,17.00
2017-07-31T02:23:12.273Z,17.00
2017-07-31T02:25:39.802Z,16.90
2017-07-31T02:28:08.103Z,17.00
2017-07-31T02:30:35.669Z,17.00
2017-07-31T02:33:03.207Z,17.10
2017-07-31T02:35:30.758Z,16.90
2017-07-31T02:37:59.048Z,16.80
2017-07-31T02:40:26.609Z,16.70
2017-07-31T02:42:54.149Z,16.70
2017-07-31T02:45:22.470Z,16.60
2017-07-31T02:47:49.994Z,16.60
2017-07-31T02:50:17.556Z,16.60
2017-07-31T02:52:45.095Z,16.60
2017-07-31T02:55:13.407Z,16.60
2017-07-31T02:57:40.934Z,16.60
2017-07-31T03:00:09.255Z,16.70
2017-07-31T03:02:36.781Z,16.70
2017-07-31T03:05:05.094Z,16.80
2017-07-31T03:07:32.618Z,16.80
2017-07-31T03:10:00.933Z,16.70
2017-07-31T03:12:28.472Z,16.70
2017-07-31T03:14:56.027Z,16.60
2017-07-31T03:17:23.555Z,16.40
2017-07-31T03:19:51.118Z,16.40
2017-07-31T03:22:19.414Z,16.40
2017-07-31T03:24:47.008Z,16.40
2017-07-31T03:27:14.530Z,16.40
2017-07-31T03:29:42.817Z,16.40
2017-07-31T03:32:10.367Z,16.30
2017-07-31T03:34:38.665Z,16.20
2017-07-31T03:37:06.219Z,16.20
2017-07-31T03:39:33.752Z,16.30
2017-07-31T03:42:02.084Z,16.30
2017-07-31T03:44:29.612Z,16.30
2017-07-31T03:46:57.158Z,16.30
2017-07-31T03:49:24.707Z,16.30
2017-07-31T03:51:53.026Z,16.20
2017-07-31T03:54:20.554Z,16.20
2017-07-31T03:56:48.870Z,16.30
2017-07-31T03:59:16.398Z,16.30
2017-07-31T04:01:44.717Z,16.10
2017-07-31T04:04:12.241Z,16.10
2017-07-31T04:06:39.793Z,16.10
2017-07-31T04:09:07.322Z,16.10
2017-07-31T04:11:34.873Z,16.10
2017-07-31T04:14:02.410Z,16.20
2017-07-31T04:16:29.952Z,16.20
2017-07-31T04:18:57.478Z,16.30
2017-07-31T04:21:25.795Z,16.70
2017-07-31T04:23:53.314Z,16.60
2017-07-31T04:26:21.635Z,16.70
2017-07-31T04:28:49.163Z,16.70
2017-07-31T04:31:17.451Z,16.70
2017-07-31T04:33:45.001Z,16.70
2017-07-31T04:36:13.294Z,16.70
2017-07-31T04:38:40.850Z,16.60
2017-07-31T04:41:08.383Z,16.70
2017-07-31T04:43:36.701Z,16.80
2017-07-31T04:46:04.223Z,16.80
2017-07-31T04:48:32.542Z,16.90
2017-07-31T04:51:00.072Z,16.80
2017-07-31T04:53:27.618Z,16.90
2017-07-31T04:55:55.910Z,16.90
2017-07-31T04:58:23.458Z,16.80
2017-07-31T05:00:51.746Z,17.00
2017-07-31T05:03:19.298Z,16.90
2017-07-31T05:05:46.837Z,17.10
2017-07-31T05:08:21.163Z,16.90
2017-07-31T05:10:49.458Z,16.80
2017-07-31T05:13:17.006Z,16.80
2017-07-31T05:15:45.306Z,16.80
2017-07-31T05:18:12.871Z,16.70
2017-07-31T05:20:40.394Z,16.80
2017-07-31T05:23:08.705Z,17.10
2017-07-31T05:25:36.230Z,17.10
2017-07-31T05:28:04.553Z,17.20
2017-07-31T05:30:32.082Z,17.20
2017-07-31T05:33:00.415Z,17.20
2017-07-31T05:35:27.952Z,17.20
2017-07-31T05:37:55.487Z,17.20
2017-07-31T05:40:23.044Z,17.20
2017-07-31T05:42:50.569Z,17.20
2017-07-31T05:45:18.123Z,17.30
2017-07-31T05:47:45.649Z,17.40
2017-07-31T05:50:13.206Z,17.50
2017-07-31T05:52:40.730Z,17.40
2017-07-31T05:55:09.053Z,17.60
2017-07-31T05:57:36.580Z,17.60
2017-07-31T06:00:04.147Z,17.70
2017-07-31T06:02:31.680Z,18.20
2017-07-31T06:04:59.995Z,20.20
2017-07-31T06:07:27.519Z,20.20
2017-07-31T06:09:55.075Z,20.50
2017-07-31T06:12:22.603Z,21.10
2017-07-31T06:14:50.150Z,21.30
2017-07-31T06:17:17.678Z,21.30
2017-07-31T06:19:45.232Z,21.00
2017-07-31T06:22:12.764Z,20.80
2017-07-31T06:24:40.309Z,20.70
2017-07-31T06:27:07.831Z,19.80
2017-07-31T06:29:35.389Z,19.30
2017-07-31T06:32:02.919Z,19.00
2017-07-31T06:34:31.255Z,19.20
2017-07-31T06:36:58.788Z,19.20
2017-07-31T06:39:26.305Z,19.30
2017-07-31T06:41:54.635Z,19.40
2017-07-31T06:44:22.179Z,19.40
2017-07-31T06:46:49.733Z,19.60
2017-07-31T06:49:17.262Z,19.80
2017-07-31T06:51:45.581Z,20.20
2017-07-31T06:54:13.115Z,20.20
2017-07-31T06:56:40.669Z,20.50
2017-07-31T06:59:08.964Z,21.10
2017-07-31T07:01:36.510Z,21.10
2017-07-31T07:04:04.814Z,20.80
2017-07-31T07:06:32.360Z,20.80
2017-07-31T07:08:59.891Z,20.40
2017-07-31T07:11:27.451Z,20.10
2017-07-31T07:13:55.748Z,20.70
2017-07-31T07:16:24.071Z,20.90
2017-07-31T07:18:51.613Z,20.90
2017-07-31T07:21:19.173Z,21.20
2017-07-31T07:23:46.707Z,20.60
2017-07-31T07:26:14.258Z,20.80
2017-07-31T07:28:42.554Z,20.60
2017-07-31T07:31:10.115Z,20.60
2017-07-31T07:33:37.651Z,20.50
2017-07-31T07:36:05.983Z,20.60
2017-07-31T07:38:33.505Z,20.60
2017-07-31T07:41:01.044Z,20.40
2017-07-31T07:43:29.357Z,20.50
2017-07-31T07:45:56.883Z,20.50
2017-07-31T07:48:25.203Z,20.60
2017-07-31T07:50:52.732Z,20.60
2017-07-31T07:53:21.046Z,20.50
2017-07-31T07:55:48.575Z,20.50
2017-07-31T07:58:16.130Z,20.50
2017-07-31T08:00:43.657Z,20.90
2017-07-31T08:03:11.209Z,21.00
2017-07-31T08:05:38.735Z,21.40
2017-07-31T08:08:06.293Z,22.40
2017-07-31T08:10:33.817Z,22.40
2017-07-31T08:13:02.137Z,21.70
2017-07-31T08:15:29.673Z,21.70
2017-07-31T08:17:57.227Z,21.80
2017-07-31T08:20:24.751Z,22.00
2017-07-31T08:22:52.303Z,22.10
2017-07-31T08:25:19.831Z,22.20
2017-07-31T08:27:47.374Z,21.80
2017-07-31T08:30:14.899Z,21.60
2017-07-31T08:32:42.442Z,21.90
2017-07-31T08:35:09.970Z,22.10
2017-07-31T08:37:37.514Z,22.20
2017-07-31T08:40:05.035Z,22.20
2017-07-31T08:42:32.558Z,22.10
2017-07-31T08:45:00.107Z,22.40
2017-07-31T08:47:27.631Z,22.70
2017-07-31T08:49:55.947Z,22.40
2017-07-31T08:52:23.469Z,22.40
2017-07-31T08:54:51.018Z,22.20
2017-07-31T08:57:19.310Z,22.10
2017-07-31T08:59:46.861Z,22.10
2017-07-31T09:02:15.154Z,22.40
2017-07-31T09:04:42.698Z,22.40
2017-07-31T09:07:10.991Z,22.40
2017-07-31T09:09:38.537Z,22.40
2017-07-31T09:12:06.830Z,22.90
2017-07-31T09:14:34.387Z,22.90
2017-07-31T09:17:01.914Z,23.00
2017-07-31T09:19:30.232Z,23.60
2017-07-31T09:21:57.760Z,23.60
2017-07-31T09:24:26.084Z,24.00
2017-07-31T09:26:53.616Z,23.90
2017-07-31T09:29:21.166Z,23.40
2017-07-31T09:31:48.695Z,23.60
2017-07-31T09:34:16.247Z,24.10
2017-07-31T09:36:43.772Z,24.20
2017-07-31T09:39:11.338Z,24.20
2017-07-31T09:41:38.862Z,24.00
2017-07-31T09:44:07.145Z,23.80
2017-07-31T09:46:35.460Z,23.70
2017-07-31T09:49:02.998Z,23.70
2017-07-31T09:51:30.550Z,24.30
2017-07-31T09:53:58.077Z,24.40
2017-07-31T09:56:25.632Z,24.70
2017-07-31T09:58:53.162Z,24.10
2017-07-31T10:01:20.722Z,24.20
2017-07-31T10:03:48.251Z,24.40
2017-07-31T10:06:15.803Z,24.40
2017-07-31T10:08:43.335Z,24.30
2017-07-31T10:11:10.888Z,24.90
2017-07-31T10:13:38.424Z,24.70
2017-07-31T10:16:05.991Z,24.70
2017-07-31T10:18:33.514Z,25.00
2017-07-31T10:21:01.062Z,25.00
2017-07-31T10:23:28.595Z,24.70
2017-07-31T10:25:56.163Z,24.70
2017-07-31T10:28:24.469Z,24.90
2017-07-31T10:30:52.018Z,24.90
2017-07-31T10:33:19.550Z,25.20
2017-07-31T10:35:47.871Z,24.80
2017-07-31T10:38:15.416Z,24.70
2017-07-31T10:40:42.994Z,25.40
2017-07-31T10:43:10.525Z,25.60
2017-07-31T10:45:38.818Z,24.80
2017-07-31T10:48:06.378Z,24.70
2017-07-31T10:50:33.906Z,24.50
2017-07-31T10:53:01.462Z,24.60
2017-07-31T10:55:28.991Z,24.50
2017-07-31T10:57:56.547Z,24.60
2017-07-31T11:00:24.070Z,24.70
2017-07-31T11:02:51.618Z,24.40
2017-07-31T11:05:19.913Z,24.30
2017-07-31T11:07:47.472Z,24.30
2017-07-31T11:10:14.994Z,24.20
2017-07-31T11:12:42.544Z,24.10
2017-07-31T11:15:10.086Z,23.90
2017-07-31T11:17:37.638Z,23.80
2017-07-31T11:20:05.174Z,24.30
2017-07-31T11:22:32.722Z,24.70
2017-07-31T11:25:00.258Z,25.10
2017-07-31T11:27:28.574Z,24.80
2017-07-31T11:29:56.106Z,24.80
2017-07-31T11:32:24.423Z,24.50
2017-07-31T11:34:51.942Z,24.50
2017-07-31T11:37:20.264Z,24.40
2017-07-31T11:39:47.794Z,24.40
2017-07-31T11:42:15.358Z,24.50
2017-07-31T11:44:42.887Z,24.90
2017-07-31T11:47:11.179Z,25.30
2017-07-31T11:49:39.493Z,25.20
2017-07-31T11:52:07.036Z,25.20
2017-07-31T11:54:34.587Z,25.00
2017-07-31T11:57:02.117Z,25.10
2017-07-31T11:59:30.436Z,24.50
2017-07-31T12:01:57.972Z,24.40
2017-07-31T12:04:25.523Z,24.70
2017-07-31T12:06:53.820Z,25.60
2017-07-31T12:09:21.371Z,25.50
2017-07-31T12:11:48.898Z,26.70
2017-07-31T12:14:16.460Z,27.60
2017-07-31T12:16:44.010Z,26.80
2017-07-31T12:19:11.559Z,26.20
2017-07-31T12:21:39.082Z,25.90
2017-07-31T12:24:06.631Z,26.10
2017-07-31T12:26:34.166Z,25.30
2017-07-31T12:29:01.721Z,25.30
2017-07-31T12:31:30.022Z,25.20
2017-07-31T12:33:57.573Z,25.20
2017-07-31T12:36:25.879Z,25.30
2017-07-31T12:38:53.434Z,25.30
2017-07-31T12:41:20.963Z,25.00
2017-07-31T12:43:49.283Z,25.20
2017-07-31T12:46:16.811Z,25.20
2017-07-31T12:48:45.151Z,25.10
2017-07-31T12:51:12.675Z,25.10
2017-07-31T12:53:40.205Z,24.80
2017-07-31T12:56:08.522Z,24.40
2017-07-31T12:58:36.047Z,24.40
2017-07-31T13:01:03.603Z,25.10
2017-07-31T13:03:31.899Z,26.00
2017-07-31T13:05:59.455Z,26.00
2017-07-31T13:08:26.983Z,26.00
2017-07-31T13:10:54.551Z,25.70
2017-07-31T13:13:22.086Z,25.30
2017-07-31T13:15:49.638Z,25.20
2017-07-31T13:18:17.164Z,25.10
2017-07-31T13:20:44.710Z,25.10
2017-07-31T13:23:12.244Z,24.90
2017-07-31T13:25:40.575Z,24.20
2017-07-31T13:28:08.109Z,24.10
2017-07-31T13:30:35.676Z,24.00
2017-07-31T13:33:03.199Z,23.60
2017-07-31T13:35:31.514Z,22.70
2017-07-31T13:37:59.051Z,22.70
2017-07-31T13:40:27.363Z,22.10
2017-07-31T13:42:54.891Z,22.10
2017-07-31T13:45:22.458Z,22.20
2017-07-31T13:47:49.990Z,22.90
2017-07-31T13:50:17.520Z,23.50
2017-07-31T13:52:45.076Z,23.80
2017-07-31T13:55:12.602Z,23.50
2017-07-31T13:57:40.157Z,23.90
2017-07-31T14:00:07.690Z,23.30
2017-07-31T14:02:36.017Z,22.60
2017-07-31T14:05:03.542Z,22.60
2017-07-31T14:07:31.874Z,21.90
2017-07-31T14:09:59.394Z,21.90
2017-07-31T14:12:26.947Z,21.70
2017-07-31T14:14:54.466Z,21.50
2017-07-31T14:17:22.015Z,21.50
2017-07-31T14:19:49.547Z,21.80
2017-07-31T14:22:17.099Z,21.70
2017-07-31T14:24:44.634Z,21.40
2017-07-31T14:27:12.206Z,21.30
2017-07-31T14:29:39.743Z,21.10
2017-07-31T14:32:08.070Z,20.70
2017-07-31T14:34:35.606Z,20.70
2017-07-31T14:37:03.163Z,20.60
2017-07-31T14:39:30.698Z,20.70
2017-07-31T14:41:59.024Z,20.80
2017-07-31T14:44:26.572Z,20.80
2017-07-31T14:46:54.144Z,21.50
2017-07-31T14:49:21.667Z,21.60
2017-07-31T14:51:49.958Z,21.90
2017-07-31T14:54:17.518Z,21.90
2017-07-31T14:56:45.046Z,22.70
2017-07-31T14:59:12.595Z,22.60
2017-07-31T15:01:40.123Z,23.10
2017-07-31T15:04:07.678Z,23.20
2017-07-31T15:06:35.193Z,23.10
2017-07-31T15:09:03.514Z,23.30
2017-07-31T15:11:31.047Z,23.30
2017-07-31T15:13:58.613Z,23.50
2017-07-31T15:16:26.150Z,23.90
2017-07-31T15:18:54.474Z,24.40
2017-07-31T15:21:21.996Z,24.40
2017-07-31T15:23:49.549Z,24.30
2017-07-31T15:26:17.847Z,24.00
2017-07-31T15:28:45.399Z,24.00
2017-07-31T15:31:12.934Z,23.70
2017-07-31T15:33:40.480Z,24.10
2017-07-31T15:36:08.003Z,23.90
2017-07-31T15:38:35.566Z,24.30
2017-07-31T15:41:03.087Z,24.90
2017-07-31T15:43:31.403Z,24.60
2017-07-31T15:45:58.924Z,24.60
2017-07-31T15:48:26.511Z,24.20
2017-07-31T15:50:54.043Z,23.90
2017-07-31T15:53:22.331Z,24.90
2017-07-31T15:55:49.885Z,24.90
2017-07-31T15:58:17.427Z,25.30
2017-07-31T16:00:45.756Z,24.90
2017-07-31T16:03:13.303Z,24.90
2017-07-31T16:05:40.853Z,25.10
2017-07-31T16:08:08.383Z,25.30
2017-07-31T16:10:36.696Z,25.10
2017-07-31T16:13:04.214Z,25.00
2017-07-31T16:15:31.771Z,24.90
2017-07-31T16:17:59.307Z,25.20
2017-07-31T16:20:26.848Z,25.20
2017-07-31T16:22:54.369Z,24.90
2017-07-31T16:25:22.695Z,24.00
2017-07-31T16:27:50.223Z,23.90
2017-07-31T16:30:17.766Z,24.10
2017-07-31T16:32:46.055Z,24.30
2017-07-31T16:35:13.602Z,24.30
2017-07-31T16:37:41.904Z,24.00
2017-07-31T16:40:11.246Z,24.00
2017-07-31T16:42:50.711Z,23.70
2017-07-31T16:45:30.839Z,24.70
2017-07-31T16:48:21.948Z,24.60
2017-07-31T16:50:49.490Z,25.90
2017-07-31T16:53:17.018Z,26.70
2017-07-31T16:55:44.573Z,26.70
2017-07-31T16:58:12.108Z,25.90
2017-07-31T17:00:40.430Z,27.00
2017-07-31T17:03:07.961Z,27.00
2017-07-31T17:05:36.276Z,26.50
2017-07-31T17:08:03.798Z,26.50
2017-07-31T17:10:32.122Z,26.60
2017-07-31T17:12:59.656Z,26.60
2017-07-31T17:15:27.185Z,25.90
2017-07-31T17:17:55.502Z,25.70
2017-07-31T17:20:23.022Z,25.70
2017-07-31T17:22:51.343Z,25.90
2017-07-31T17:25:18.880Z,25.80
2017-07-31T17:27:46.430Z,25.60
2017-07-31T17:30:14.731Z,25.00
2017-07-31T17:32:42.290Z,25.00
2017-07-31T17:35:09.820Z,24.70
2017-07-31T17:37:38.148Z,24.30
2017-07-31T17:40:05.676Z,24.20
2017-07-31T17:42:33.277Z,24.20
2017-07-31T17:45:00.806Z,23.90
2017-07-31T17:47:28.358Z,23.30
2017-07-31T17:49:55.894Z,23.00
2017-07-31T17:52:24.221Z,22.50
2017-07-31T17:54:51.751Z,22.50
2017-07-31T17:57:19.299Z,22.50
2017-07-31T17:59:46.835Z,22.60
2017-07-31T18:02:14.390Z,22.90
2017-07-31T18:04:41.918Z,22.90
2017-07-31T18:07:09.451Z,22.80
2017-07-31T18:09:37.000Z,22.60
2017-07-31T18:12:04.527Z,22.60
2017-07-31T18:14:32.084Z,22.60
2017-07-31T18:16:59.621Z,22.40
2017-07-31T18:19:27.174Z,22.10
2017-07-31T18:21:54.701Z,22.10
2017-07-31T18:24:22.246Z,22.00
2017-07-31T18:26:50.541Z,21.70
2017-07-31T18:29:18.105Z,21.70
2017-07-31T18:31:45.648Z,21.60
2017-07-31T18:34:14.495Z,21.20
2017-07-31T18:36:42.038Z,21.10
2017-07-31T18:39:09.595Z,21.10
2017-07-31T18:41:37.132Z,21.20
2017-07-31T18:44:04.690Z,21.30
2017-07-31T18:46:32.238Z,21.30
2017-07-31T18:49:00.553Z,21.30
2017-07-31T18:51:28.147Z,21.30
2017-07-31T18:53:55.723Z,21.20
2017-07-31T18:56:23.296Z,21.20
2017-07-31T18:58:51.649Z,21.20
2017-07-31T19:01:19.188Z,21.20
2017-07-31T19:03:46.730Z,21.10
2017-07-31T19:06:14.286Z,21.00
2017-07-31T19:08:41.817Z,21.00
2017-07-31T19:11:10.147Z,20.80
2017-07-31T19:13:37.672Z,20.80
2017-07-31T19:16:05.240Z,20.80
2017-07-31T19:18:32.776Z,20.80
2017-07-31T19:21:00.343Z,20.80
2017-07-31T19:23:27.877Z,20.80
2017-07-31T19:25:56.200Z,20.60
2017-07-31T19:28:23.734Z,20.60
2017-07-31T19:30:51.320Z,20.50
2017-07-31T19:33:18.858Z,20.50
2017-07-31T19:35:46.406Z,20.60
2017-07-31T19:38:13.951Z,20.50
2017-07-31T19:40:42.271Z,20.50
2017-07-31T19:43:09.803Z,20.50
2017-07-31T19:45:38.127Z,20.20
2017-07-31T19:48:05.662Z,20.20
2017-07-31T19:50:33.214Z,20.10
2017-07-31T19:53:00.748Z,19.90
2017-07-31T19:55:29.088Z,19.80
2017-07-31T19:57:56.611Z,19.70
2017-07-31T20:00:24.143Z,19.70
2017-07-31T20:02:52.489Z,19.60
2017-07-31T20:05:20.018Z,19.60
2017-07-31T20:07:47.566Z,19.50
2017-07-31T20:10:15.100Z,19.50
2017-07-31T20:12:43.424Z,19.40
2017-07-31T20:15:10.954Z,19.40
2017-07-31T20:17:38.510Z,19.40
2017-07-31T20:20:06.804Z,19.40
2017-07-31T20:22:34.370Z,19.40
2017-07-31T20:25:01.894Z,19.50
2017-07-31T20:27:30.217Z,19.60
2017-07-31T20:29:57.748Z,19.60
2017-07-31T20:32:25.320Z,19.80
2017-07-31T20:34:52.854Z,19.70
2017-07-31T20:37:21.194Z,19.80
2017-07-31T20:39:48.728Z,19.70
2017-07-31T20:42:16.296Z,19.70
2017-07-31T20:44:43.818Z,19.60
2017-07-31T20:47:11.371Z,19.50
2017-07-31T20:49:39.723Z,19.60
2017-07-31T20:52:07.289Z,19.60
2017-07-31T20:54:34.818Z,19.70
2017-07-31T20:57:02.370Z,19.70
2017-07-31T20:59:29.929Z,19.90
2017-07-31T21:01:57.453Z,20.00
2017-07-31T21:04:25.775Z,19.60
2017-07-31T21:06:53.319Z,19.60
2017-07-31T21:09:20.867Z,19.40
2017-07-31T21:11:48.398Z,19.20
2017-07-31T21:14:15.955Z,19.20
2017-07-31T21:16:43.483Z,19.40
2017-07-31T21:19:11.038Z,19.40
2017-07-31T21:21:38.566Z,19.30
2017-07-31T21:24:06.118Z,19.40
2017-07-31T21:26:33.651Z,19.60
2017-07-31T21:29:01.970Z,19.50
2017-07-31T21:31:29.503Z,19.50
2017-07-31T21:33:57.817Z,19.20
2017-07-31T21:36:25.381Z,19.20
2017-07-31T21:38:52.940Z,19.20
2017-07-31T21:41:20.467Z,19.20
2017-07-31T21:43:48.030Z,19.00
2017-07-31T21:46:15.562Z,18.90
2017-07-31T21:48:43.882Z,18.80
2017-07-31T21:51:11.406Z,18.80
2017-07-31T21:53:39.730Z,19.20
2017-07-31T21:56:07.269Z,19.20
2017-07-31T21:58:34.814Z,19.40
2017-07-31T22:01:03.142Z,19.30
2017-07-31T22:03:30.671Z,19.20
2017-07-31T22:05:58.232Z,19.20
2017-07-31T22:08:25.767Z,19.10
2017-07-31T22:10:54.082Z,19.10
2017-07-31T22:13:21.611Z,19.10
2017-07-31T22:15:49.927Z,19.30
2017-07-31T22:18:23.170Z,19.20
2017-07-31T22:21:09.258Z,19.40
2017-07-31T22:23:37.555Z,19.30
2017-07-31T22:26:05.106Z,19.30
2017-07-31T22:28:33.398Z,19.40
2017-07-31T22:51:21.614Z,18.90
2017-07-31T22:53:49.143Z,18.80
2017-07-31T22:56:16.704Z,18.90
2017-07-31T22:58:44.229Z,18.90
2017-07-31T23:01:11.790Z,19.00
2017-07-31T23:03:39.322Z,19.10
2017-07-31T23:06:06.880Z,19.00
2017-07-31T23:08:34.410Z,19.00
2017-07-31T23:11:01.967Z,19.00
2017-07-31T23:13:29.514Z,18.80
2017-07-31T23:15:57.068Z,18.70
2017-07-31T23:18:24.603Z,18.60
2017-07-31T23:20:52.163Z,18.60
2017-07-31T23:23:19.690Z,18.50
2017-07-31T23:25:47.230Z,18.50
2017-07-31T23:28:14.778Z,18.50
2017-07-31T23:30:42.305Z,18.50
2017-07-31T23:33:10.627Z,18.80
2017-07-31T23:35:38.155Z,18.70
2017-07-31T23:38:06.476Z,19.30
2017-07-31T23:40:34.001Z,19.30
2017-07-31T23:43:01.562Z,19.30
2017-07-31T23:45:29.098Z,19.20
2017-07-31T23:47:57.423Z,19.20
2017-07-31T23:50:24.967Z,19.20
2017-07-31T23:52:52.549Z,19.10
2017-07-31T23:55:20.148Z,18.90
2017-07-31T23:57:48.480Z,18.50
